sensor_id;sensor_type;location;lat;lon;timestamp;temperature;humidity
51878;SHT31;37911;51.526;11.536;2024-02-21T00:01:25;7.83;80.03
51878;SHT31;37911;51.526;11.536;2024-02-21T00:04:28;7.83;80.11
51878;SHT31;37911;51.526;11.536;2024-02-21T00:07:31;7.92;79.88
51878;SHT31;37911;51.526;11.536;2024-02-21T00:10:35;7.83;80.09
51878;SHT31;37911;51.526;11.536;2024-02-21T00:13:41;7.86;80.00
51878;SHT31;37911;51.526;11.536;2024-02-21T00:16:44;7.96;79.83
51878;SHT31;37911;51.526;11.536;2024-02-21T00:19:47;7.89;79.95
51878;SHT31;37911;51.526;11.536;2024-02-21T00:22:50;7.85;80.35
51878;SHT31;37911;51.526;11.536;2024-02-21T00:25:55;7.81;80.39
51878;SHT31;37911;51.526;11.536;2024-02-21T00:29:00;7.81;80.38
51878;SHT31;37911;51.526;11.536;2024-02-21T00:32:04;7.83;80.17
51878;SHT31;37911;51.526;11.536;2024-02-21T00:35:08;7.81;80.28
51878;SHT31;37911;51.526;11.536;2024-02-21T00:38:11;7.74;80.51
51878;SHT31;37911;51.526;11.536;2024-02-21T00:41:14;7.77;80.33
51878;SHT31;37911;51.526;11.536;2024-02-21T00:44:20;7.77;80.37
51878;SHT31;37911;51.526;11.536;2024-02-21T00:47:24;7.74;80.61
51878;SHT31;37911;51.526;11.536;2024-02-21T00:50:27;7.77;80.67
51878;SHT31;37911;51.526;11.536;2024-02-21T00:53:30;7.71;80.76
51878;SHT31;37911;51.526;11.536;2024-02-21T00:56:33;7.72;80.61
51878;SHT31;37911;51.526;11.536;2024-02-21T00:59:39;7.74;80.53
51878;SHT31;37911;51.526;11.536;2024-02-21T01:02:43;7.79;80.27
51878;SHT31;37911;51.526;11.536;2024-02-21T01:05:46;7.74;80.18
51878;SHT31;37911;51.526;11.536;2024-02-21T01:08:50;7.75;80.24
51878;SHT31;37911;51.526;11.536;2024-02-21T01:11:53;7.72;80.43
51878;SHT31;37911;51.526;11.536;2024-02-21T01:14:59;7.72;80.51
51878;SHT31;37911;51.526;11.536;2024-02-21T01:18:02;7.74;80.28
51878;SHT31;37911;51.526;11.536;2024-02-21T01:21:06;7.77;80.15
51878;SHT31;37911;51.526;11.536;2024-02-21T01:24:10;7.75;80.17
51878;SHT31;37911;51.526;11.536;2024-02-21T01:27:14;7.74;80.48
51878;SHT31;37911;51.526;11.536;2024-02-21T01:30:20;7.75;80.65
51878;SHT31;37911;51.526;11.536;2024-02-21T01:33:23;7.77;80.61
51878;SHT31;37911;51.526;11.536;2024-02-21T01:36:27;7.77;80.50
51878;SHT31;37911;51.526;11.536;2024-02-21T01:39:30;7.72;80.73
51878;SHT31;37911;51.526;11.536;2024-02-21T01:42:37;7.75;80.55
51878;SHT31;37911;51.526;11.536;2024-02-21T01:45:48;7.75;80.58
51878;SHT31;37911;51.526;11.536;2024-02-21T01:48:51;7.71;80.93
51878;SHT31;37911;51.526;11.536;2024-02-21T01:51:55;7.69;81.11
51878;SHT31;37911;51.526;11.536;2024-02-21T01:54:59;7.67;81.08
51878;SHT31;37911;51.526;11.536;2024-02-21T01:58:03;7.65;81.12
51878;SHT31;37911;51.526;11.536;2024-02-21T02:01:09;7.65;81.48
51878;SHT31;37911;51.526;11.536;2024-02-21T02:04:13;7.61;81.52
51878;SHT31;37911;51.526;11.536;2024-02-21T02:07:16;7.59;81.69
51878;SHT31;37911;51.526;11.536;2024-02-21T02:10:20;7.58;81.77
51878;SHT31;37911;51.526;11.536;2024-02-21T02:13:23;7.54;82.16
51878;SHT31;37911;51.526;11.536;2024-02-21T02:16:29;7.57;82.23
51878;SHT31;37911;51.526;11.536;2024-02-21T02:19:32;7.51;82.81
51878;SHT31;37911;51.526;11.536;2024-02-21T02:22:37;7.47;83.05
51878;SHT31;37911;51.526;11.536;2024-02-21T02:25:45;7.46;83.19
51878;SHT31;37911;51.526;11.536;2024-02-21T02:28:49;7.50;82.95
51878;SHT31;37911;51.526;11.536;2024-02-21T02:31:53;7.47;83.39
51878;SHT31;37911;51.526;11.536;2024-02-21T02:34:56;7.41;83.48
51878;SHT31;37911;51.526;11.536;2024-02-21T02:37:59;7.41;83.44
51878;SHT31;37911;51.526;11.536;2024-02-21T02:41:05;7.43;83.15
51878;SHT31;37911;51.526;11.536;2024-02-21T02:44:08;7.41;83.18
51878;SHT31;37911;51.526;11.536;2024-02-21T02:47:11;7.43;83.35
51878;SHT31;37911;51.526;11.536;2024-02-21T02:50:15;7.43;83.59
51878;SHT31;37911;51.526;11.536;2024-02-21T02:53:18;7.40;83.63
51878;SHT31;37911;51.526;11.536;2024-02-21T02:56:24;7.37;83.94
51878;SHT31;37911;51.526;11.536;2024-02-21T02:59:27;7.40;83.79
51878;SHT31;37911;51.526;11.536;2024-02-21T03:02:31;7.38;83.76
51878;SHT31;37911;51.526;11.536;2024-02-21T03:05:34;7.40;83.74
51878;SHT31;37911;51.526;11.536;2024-02-21T03:08:37;7.43;83.69
51878;SHT31;37911;51.526;11.536;2024-02-21T03:11:43;7.40;83.92
51878;SHT31;37911;51.526;11.536;2024-02-21T03:14:47;7.46;83.54
51878;SHT31;37911;51.526;11.536;2024-02-21T03:17:50;7.44;83.81
51878;SHT31;37911;51.526;11.536;2024-02-21T03:20:54;7.48;83.46
51878;SHT31;37911;51.526;11.536;2024-02-21T03:23:57;7.44;83.57
51878;SHT31;37911;51.526;11.536;2024-02-21T03:27:03;7.50;83.68
51878;SHT31;37911;51.526;11.536;2024-02-21T03:30:07;7.47;83.60
51878;SHT31;37911;51.526;11.536;2024-02-21T03:33:10;7.48;83.66
51878;SHT31;37911;51.526;11.536;2024-02-21T03:36:14;7.50;83.51
51878;SHT31;37911;51.526;11.536;2024-02-21T03:39:17;7.51;83.35
51878;SHT31;37911;51.526;11.536;2024-02-21T03:42:24;7.51;83.54
51878;SHT31;37911;51.526;11.536;2024-02-21T03:45:29;7.58;83.30
51878;SHT31;37911;51.526;11.536;2024-02-21T03:48:33;7.58;83.21
51878;SHT31;37911;51.526;11.536;2024-02-21T03:51:36;7.59;83.14
51878;SHT31;37911;51.526;11.536;2024-02-21T03:54:39;7.58;83.47
51878;SHT31;37911;51.526;11.536;2024-02-21T03:57:45;7.61;83.31
51878;SHT31;37911;51.526;11.536;2024-02-21T04:00:49;7.62;83.35
51878;SHT31;37911;51.526;11.536;2024-02-21T04:03:52;7.65;83.15
51878;SHT31;37911;51.526;11.536;2024-02-21T04:06:55;7.64;83.29
51878;SHT31;37911;51.526;11.536;2024-02-21T04:09:59;7.68;83.04
51878;SHT31;37911;51.526;11.536;2024-02-21T04:13:05;7.67;83.16
51878;SHT31;37911;51.526;11.536;2024-02-21T04:16:08;7.62;83.62
51878;SHT31;37911;51.526;11.536;2024-02-21T04:19:12;7.65;83.55
51878;SHT31;37911;51.526;11.536;2024-02-21T04:22:15;7.64;83.55
51878;SHT31;37911;51.526;11.536;2024-02-21T04:25:18;7.62;83.55
51878;SHT31;37911;51.526;11.536;2024-02-21T04:28:24;7.59;83.62
51878;SHT31;37911;51.526;11.536;2024-02-21T04:31:28;7.62;83.56
51878;SHT31;37911;51.526;11.536;2024-02-21T04:34:31;7.55;83.84
51878;SHT31;37911;51.526;11.536;2024-02-21T04:37:35;7.64;83.51
51878;SHT31;37911;51.526;11.536;2024-02-21T04:40:38;7.61;83.59
51878;SHT31;37911;51.526;11.536;2024-02-21T04:43:45;7.62;83.43
51878;SHT31;37911;51.526;11.536;2024-02-21T04:46:49;7.59;83.51
51878;SHT31;37911;51.526;11.536;2024-02-21T04:49:52;7.52;83.87
51878;SHT31;37911;51.526;11.536;2024-02-21T04:52:55;7.57;83.82
51878;SHT31;37911;51.526;11.536;2024-02-21T04:55:58;7.54;83.72
51878;SHT31;37911;51.526;11.536;2024-02-21T04:59:04;7.48;83.93
51878;SHT31;37911;51.526;11.536;2024-02-21T05:02:07;7.41;84.20
51878;SHT31;37911;51.526;11.536;2024-02-21T05:05:11;7.32;84.24
51878;SHT31;37911;51.526;11.536;2024-02-21T05:08:15;7.30;84.50
51878;SHT31;37911;51.526;11.536;2024-02-21T05:11:18;7.27;84.55
51878;SHT31;37911;51.526;11.536;2024-02-21T05:14:24;7.21;84.72
51878;SHT31;37911;51.526;11.536;2024-02-21T05:17:27;7.17;85.04
51878;SHT31;37911;51.526;11.536;2024-02-21T05:20:31;7.16;85.05
51878;SHT31;37911;51.526;11.536;2024-02-21T05:23:34;7.13;85.31
51878;SHT31;37911;51.526;11.536;2024-02-21T05:26:37;7.11;85.32
51878;SHT31;37911;51.526;11.536;2024-02-21T05:29:43;7.08;85.36
51878;SHT31;37911;51.526;11.536;2024-02-21T05:32:46;7.04;85.58
51878;SHT31;37911;51.526;11.536;2024-02-21T05:35:50;7.06;85.83
51878;SHT31;37911;51.526;11.536;2024-02-21T05:38:53;7.03;85.71
51878;SHT31;37911;51.526;11.536;2024-02-21T05:41:58;6.96;85.90
51878;SHT31;37911;51.526;11.536;2024-02-21T05:45:05;6.96;86.14
51878;SHT31;37911;51.526;11.536;2024-02-21T05:48:08;6.93;86.25
51878;SHT31;37911;51.526;11.536;2024-02-21T05:51:12;6.94;86.14
51878;SHT31;37911;51.526;11.536;2024-02-21T05:54:16;6.94;86.25
51878;SHT31;37911;51.526;11.536;2024-02-21T05:57:19;7.01;85.91
51878;SHT31;37911;51.526;11.536;2024-02-21T06:00:25;6.97;86.19
51878;SHT31;37911;51.526;11.536;2024-02-21T06:03:28;6.97;86.37
51878;SHT31;37911;51.526;11.536;2024-02-21T06:06:31;6.94;86.32
51878;SHT31;37911;51.526;11.536;2024-02-21T06:09:34;6.93;86.25
51878;SHT31;37911;51.526;11.536;2024-02-21T06:12:38;6.97;86.03
51878;SHT31;37911;51.526;11.536;2024-02-21T06:15:44;7.07;85.62
51878;SHT31;37911;51.526;11.536;2024-02-21T06:18:47;7.06;85.64
51878;SHT31;37911;51.526;11.536;2024-02-21T06:21:50;7.07;85.41
51878;SHT31;37911;51.526;11.536;2024-02-21T06:24:54;7.13;84.57
51878;SHT31;37911;51.526;11.536;2024-02-21T06:27:57;7.20;84.09
51878;SHT31;37911;51.526;11.536;2024-02-21T06:31:03;7.31;83.56
51878;SHT31;37911;51.526;11.536;2024-02-21T06:34:07;7.35;83.21
51878;SHT31;37911;51.526;11.536;2024-02-21T06:37:10;7.43;82.79
51878;SHT31;37911;51.526;11.536;2024-02-21T06:40:13;7.47;82.61
51878;SHT31;37911;51.526;11.536;2024-02-21T06:43:17;7.57;82.25
51878;SHT31;37911;51.526;11.536;2024-02-21T06:46:28;7.58;82.15
51878;SHT31;37911;51.526;11.536;2024-02-21T06:49:33;7.64;81.97
51878;SHT31;37911;51.526;11.536;2024-02-21T06:52:37;7.61;82.18
51878;SHT31;37911;51.526;11.536;2024-02-21T06:55:40;7.65;82.03
51878;SHT31;37911;51.526;11.536;2024-02-21T06:58:43;7.75;81.88
51878;SHT31;37911;51.526;11.536;2024-02-21T07:01:52;7.81;81.56
51878;SHT31;37911;51.526;11.536;2024-02-21T07:04:56;7.85;81.02
51878;SHT31;37911;51.526;11.536;2024-02-21T07:07:59;7.91;80.99
51878;SHT31;37911;51.526;11.536;2024-02-21T07:11:04;7.96;80.59
51878;SHT31;37911;51.526;11.536;2024-02-21T07:14:08;7.95;80.54
51878;SHT31;37911;51.526;11.536;2024-02-21T07:17:14;8.03;79.96
51878;SHT31;37911;51.526;11.536;2024-02-21T07:20:18;8.05;80.13
51878;SHT31;37911;51.526;11.536;2024-02-21T07:23:21;8.13;79.90
51878;SHT31;37911;51.526;11.536;2024-02-21T07:26:24;8.21;79.35
51878;SHT31;37911;51.526;11.536;2024-02-21T07:29:28;8.26;79.26
51878;SHT31;37911;51.526;11.536;2024-02-21T07:32:33;8.30;77.97
51878;SHT31;37911;51.526;11.536;2024-02-21T07:35:37;8.34;77.77
51878;SHT31;37911;51.526;11.536;2024-02-21T07:38:41;8.40;77.48
51878;SHT31;37911;51.526;11.536;2024-02-21T07:41:45;8.39;76.90
51878;SHT31;37911;51.526;11.536;2024-02-21T07:44:49;8.39;77.01
51878;SHT31;37911;51.526;11.536;2024-02-21T07:47:55;8.40;76.81
51878;SHT31;37911;51.526;11.536;2024-02-21T07:50:59;8.42;77.17
51878;SHT31;37911;51.526;11.536;2024-02-21T07:54:02;8.40;76.68
51878;SHT31;37911;51.526;11.536;2024-02-21T07:57:05;8.42;77.03
51878;SHT31;37911;51.526;11.536;2024-02-21T08:00:09;8.46;76.62
51878;SHT31;37911;51.526;11.536;2024-02-21T08:03:22;8.52;76.34
51878;SHT31;37911;51.526;11.536;2024-02-21T08:06:26;8.54;75.92
51878;SHT31;37911;51.526;11.536;2024-02-21T08:09:29;8.54;75.60
51878;SHT31;37911;51.526;11.536;2024-02-21T08:12:32;8.59;75.43
51878;SHT31;37911;51.526;11.536;2024-02-21T08:15:36;8.70;74.56
51878;SHT31;37911;51.526;11.536;2024-02-21T08:18:43;8.80;73.62
51878;SHT31;37911;51.526;11.536;2024-02-21T08:21:47;9.08;72.99
51878;SHT31;37911;51.526;11.536;2024-02-21T08:24:50;9.46;71.50
51878;SHT31;37911;51.526;11.536;2024-02-21T08:27:57;9.58;70.19
51878;SHT31;37911;51.526;11.536;2024-02-21T08:31:00;9.38;70.39
51878;SHT31;37911;51.526;11.536;2024-02-21T08:34:06;9.36;70.49
51878;SHT31;37911;51.526;11.536;2024-02-21T08:37:10;9.39;70.18
51878;SHT31;37911;51.526;11.536;2024-02-21T08:40:14;9.42;69.92
51878;SHT31;37911;51.526;11.536;2024-02-21T08:43:18;9.53;69.75
51878;SHT31;37911;51.526;11.536;2024-02-21T08:46:21;9.55;69.41
51878;SHT31;37911;51.526;11.536;2024-02-21T08:49:27;9.39;70.33
51878;SHT31;37911;51.526;11.536;2024-02-21T08:52:31;9.29;70.69
51878;SHT31;37911;51.526;11.536;2024-02-21T08:55:35;9.21;70.91
51878;SHT31;37911;51.526;11.536;2024-02-21T08:58:39;9.21;71.37
51878;SHT31;37911;51.526;11.536;2024-02-21T09:01:43;9.17;71.58
51878;SHT31;37911;51.526;11.536;2024-02-21T09:04:49;9.24;71.95
51878;SHT31;37911;51.526;11.536;2024-02-21T09:07:53;9.21;71.70
51878;SHT31;37911;51.526;11.536;2024-02-21T09:10:56;9.27;71.19
51878;SHT31;37911;51.526;11.536;2024-02-21T09:13:59;9.35;71.21
51878;SHT31;37911;51.526;11.536;2024-02-21T09:17:04;9.45;70.20
51878;SHT31;37911;51.526;11.536;2024-02-21T09:20:10;9.43;70.69
51878;SHT31;37911;51.526;11.536;2024-02-21T09:23:16;9.46;70.84
51878;SHT31;37911;51.526;11.536;2024-02-21T09:26:20;9.58;70.59
51878;SHT31;37911;51.526;11.536;2024-02-21T09:29:23;9.56;70.45
51878;SHT31;37911;51.526;11.536;2024-02-21T09:32:26;9.62;69.91
51878;SHT31;37911;51.526;11.536;2024-02-21T09:35:32;9.72;70.48
51878;SHT31;37911;51.526;11.536;2024-02-21T09:38:36;9.80;69.44
51878;SHT31;37911;51.526;11.536;2024-02-21T09:41:44;9.79;69.70
51878;SHT31;37911;51.526;11.536;2024-02-21T09:44:50;9.97;69.07
51878;SHT31;37911;51.526;11.536;2024-02-21T09:48:06;10.45;68.08
51878;SHT31;37911;51.526;11.536;2024-02-21T09:51:19;10.88;66.65
51878;SHT31;37911;51.526;11.536;2024-02-21T09:54:22;11.19;64.87
51878;SHT31;37911;51.526;11.536;2024-02-21T09:57:26;11.39;63.83
51878;SHT31;37911;51.526;11.536;2024-02-21T10:00:29;11.53;63.66
51878;SHT31;37911;51.526;11.536;2024-02-21T10:03:32;11.76;63.22
51878;SHT31;37911;51.526;11.536;2024-02-21T10:06:39;11.91;62.98
51878;SHT31;37911;51.526;11.536;2024-02-21T10:09:42;12.01;61.75
51878;SHT31;37911;51.526;11.536;2024-02-21T10:12:48;12.07;61.32
51878;SHT31;37911;51.526;11.536;2024-02-21T10:16:06;12.25;60.44
51878;SHT31;37911;51.526;11.536;2024-02-21T10:19:16;12.35;60.41
51878;SHT31;37911;51.526;11.536;2024-02-21T10:22:22;12.51;60.22
51878;SHT31;37911;51.526;11.536;2024-02-21T10:25:26;12.61;60.54
51878;SHT31;37911;51.526;11.536;2024-02-21T10:28:30;12.75;59.91
51878;SHT31;37911;51.526;11.536;2024-02-21T10:31:33;12.68;60.08
51878;SHT31;37911;51.526;11.536;2024-02-21T10:34:37;12.59;60.39
51878;SHT31;37911;51.526;11.536;2024-02-21T10:37:43;12.65;59.93
51878;SHT31;37911;51.526;11.536;2024-02-21T10:40:47;12.74;59.95
51878;SHT31;37911;51.526;11.536;2024-02-21T10:43:54;12.81;60.11
51878;SHT31;37911;51.526;11.536;2024-02-21T10:46:57;12.81;60.14
51878;SHT31;37911;51.526;11.536;2024-02-21T10:50:03;13.03;59.53
51878;SHT31;37911;51.526;11.536;2024-02-21T10:53:29;12.88;59.32
51878;SHT31;37911;51.526;11.536;2024-02-21T10:56:38;12.66;60.40
51878;SHT31;37911;51.526;11.536;2024-02-21T10:59:44;12.68;60.62
51878;SHT31;37911;51.526;11.536;2024-02-21T11:02:47;12.78;60.60
51878;SHT31;37911;51.526;11.536;2024-02-21T11:05:51;12.81;60.79
51878;SHT31;37911;51.526;11.536;2024-02-21T11:09:05;12.81;60.09
51878;SHT31;37911;51.526;11.536;2024-02-21T11:12:09;13.05;60.17
51878;SHT31;37911;51.526;11.536;2024-02-21T11:15:12;13.10;60.02
51878;SHT31;37911;51.526;11.536;2024-02-21T11:18:23;13.03;60.75
51878;SHT31;37911;51.526;11.536;2024-02-21T11:21:33;12.96;60.66
51878;SHT31;37911;51.526;11.536;2024-02-21T11:24:39;12.99;61.72
51878;SHT31;37911;51.526;11.536;2024-02-21T11:27:45;13.13;62.22
51878;SHT31;37911;51.526;11.536;2024-02-21T11:30:49;12.95;62.31
51878;SHT31;37911;51.526;11.536;2024-02-21T11:33:55;13.10;62.28
51878;SHT31;37911;51.526;11.536;2024-02-21T11:37:01;13.18;61.80
51878;SHT31;37911;51.526;11.536;2024-02-21T11:40:07;12.92;62.76
51878;SHT31;37911;51.526;11.536;2024-02-21T11:43:11;13.03;62.49
51878;SHT31;37911;51.526;11.536;2024-02-21T11:46:15;13.13;62.48
51878;SHT31;37911;51.526;11.536;2024-02-21T11:49:18;13.09;63.62
51878;SHT31;37911;51.526;11.536;2024-02-21T11:52:22;13.24;63.16
51878;SHT31;37911;51.526;11.536;2024-02-21T11:55:30;12.92;63.58
51878;SHT31;37911;51.526;11.536;2024-02-21T11:58:34;13.00;64.51
51878;SHT31;37911;51.526;11.536;2024-02-21T12:01:38;13.00;63.78
51878;SHT31;37911;51.526;11.536;2024-02-21T12:04:41;12.58;64.79
51878;SHT31;37911;51.526;11.536;2024-02-21T12:07:45;12.11;66.25
51878;SHT31;37911;51.526;11.536;2024-02-21T12:10:51;12.17;66.63
51878;SHT31;37911;51.526;11.536;2024-02-21T12:14:04;12.31;65.71
51878;SHT31;37911;51.526;11.536;2024-02-21T12:17:08;12.48;65.96
51878;SHT31;37911;51.526;11.536;2024-02-21T12:20:11;12.34;65.76
51878;SHT31;37911;51.526;11.536;2024-02-21T12:23:18;12.18;66.56
51878;SHT31;37911;51.526;11.536;2024-02-21T12:26:24;12.30;66.36
51878;SHT31;37911;51.526;11.536;2024-02-21T12:29:27;12.24;67.23
51878;SHT31;37911;51.526;11.536;2024-02-21T12:32:30;12.00;67.15
51878;SHT31;37911;51.526;11.536;2024-02-21T12:35:34;11.80;68.85
51878;SHT31;37911;51.526;11.536;2024-02-21T12:38:37;11.74;68.96
51878;SHT31;37911;51.526;11.536;2024-02-21T12:41:45;11.76;69.42
51878;SHT31;37911;51.526;11.536;2024-02-21T12:44:48;11.84;68.49
51878;SHT31;37911;51.526;11.536;2024-02-21T12:47:51;11.62;69.54
51878;SHT31;37911;51.526;11.536;2024-02-21T12:50:55;11.81;69.28
51878;SHT31;37911;51.526;11.536;2024-02-21T12:53:59;11.80;69.21
51878;SHT31;37911;51.526;11.536;2024-02-21T12:57:06;11.67;68.81
51878;SHT31;37911;51.526;11.536;2024-02-21T13:00:10;11.77;68.37
51878;SHT31;37911;51.526;11.536;2024-02-21T13:03:14;11.63;68.71
51878;SHT31;37911;51.526;11.536;2024-02-21T13:06:18;11.60;68.38
51878;SHT31;37911;51.526;11.536;2024-02-21T13:09:21;11.69;68.79
51878;SHT31;37911;51.526;11.536;2024-02-21T13:12:27;11.79;68.03
51878;SHT31;37911;51.526;11.536;2024-02-21T13:15:30;11.50;67.47
51878;SHT31;37911;51.526;11.536;2024-02-21T13:18:34;11.49;67.71
51878;SHT31;37911;51.526;11.536;2024-02-21T13:21:38;11.52;67.94
51878;SHT31;37911;51.526;11.536;2024-02-21T13:24:41;11.52;67.73
51878;SHT31;37911;51.526;11.536;2024-02-21T13:27:47;11.60;67.61
51878;SHT31;37911;51.526;11.536;2024-02-21T13:30:52;11.62;66.90
51878;SHT31;37911;51.526;11.536;2024-02-21T13:33:58;11.56;67.24
51878;SHT31;37911;51.526;11.536;2024-02-21T13:37:01;11.49;67.67
51878;SHT31;37911;51.526;11.536;2024-02-21T13:40:06;11.50;67.43
51878;SHT31;37911;51.526;11.536;2024-02-21T13:43:12;11.39;67.96
51878;SHT31;37911;51.526;11.536;2024-02-21T13:46:15;11.28;68.21
51878;SHT31;37911;51.526;11.536;2024-02-21T13:49:20;11.32;67.93
51878;SHT31;37911;51.526;11.536;2024-02-21T13:52:23;11.39;68.50
51878;SHT31;37911;51.526;11.536;2024-02-21T13:55:27;11.38;68.35
51878;SHT31;37911;51.526;11.536;2024-02-21T13:58:32;11.32;67.91
51878;SHT31;37911;51.526;11.536;2024-02-21T14:01:36;11.40;67.59
51878;SHT31;37911;51.526;11.536;2024-02-21T14:04:39;11.40;67.11
51878;SHT31;37911;51.526;11.536;2024-02-21T14:07:43;11.38;67.82
51878;SHT31;37911;51.526;11.536;2024-02-21T14:10:46;11.55;66.85
51878;SHT31;37911;51.526;11.536;2024-02-21T14:13:52;11.62;66.28
51878;SHT31;37911;51.526;11.536;2024-02-21T14:16:57;11.70;66.68
51878;SHT31;37911;51.526;11.536;2024-02-21T14:20:01;11.74;66.00
51878;SHT31;37911;51.526;11.536;2024-02-21T14:23:05;11.65;66.20
51878;SHT31;37911;51.526;11.536;2024-02-21T14:26:08;11.62;65.79
51878;SHT31;37911;51.526;11.536;2024-02-21T14:29:15;11.50;66.23
51878;SHT31;37911;51.526;11.536;2024-02-21T14:32:21;11.62;65.81
51878;SHT31;37911;51.526;11.536;2024-02-21T14:35:24;11.49;65.63
51878;SHT31;37911;51.526;11.536;2024-02-21T14:38:27;11.46;65.17
51878;SHT31;37911;51.526;11.536;2024-02-21T14:41:31;11.46;66.08
51878;SHT31;37911;51.526;11.536;2024-02-21T14:44:38;11.43;65.83
51878;SHT31;37911;51.526;11.536;2024-02-21T14:47:41;11.44;65.81
51878;SHT31;37911;51.526;11.536;2024-02-21T14:50:45;11.52;65.37
51878;SHT31;37911;51.526;11.536;2024-02-21T14:53:50;11.50;65.21
51878;SHT31;37911;51.526;11.536;2024-02-21T14:56:55;11.46;65.00
51878;SHT31;37911;51.526;11.536;2024-02-21T15:00:01;11.39;65.17
51878;SHT31;37911;51.526;11.536;2024-02-21T15:03:08;11.38;64.71
51878;SHT31;37911;51.526;11.536;2024-02-21T15:06:12;11.44;65.27
51878;SHT31;37911;51.526;11.536;2024-02-21T15:09:15;11.40;65.58
51878;SHT31;37911;51.526;11.536;2024-02-21T15:12:19;11.44;64.89
51878;SHT31;37911;51.526;11.536;2024-02-21T15:15:26;11.52;64.74
51878;SHT31;37911;51.526;11.536;2024-02-21T15:18:29;11.59;65.57
51878;SHT31;37911;51.526;11.536;2024-02-21T15:21:33;11.62;65.58
51878;SHT31;37911;51.526;11.536;2024-02-21T15:24:37;11.56;65.08
51878;SHT31;37911;51.526;11.536;2024-02-21T15:27:41;11.56;65.02
51878;SHT31;37911;51.526;11.536;2024-02-21T15:30:47;11.43;65.18
51878;SHT31;37911;51.526;11.536;2024-02-21T15:33:51;11.38;66.13
51878;SHT31;37911;51.526;11.536;2024-02-21T15:36:55;11.28;66.14
51878;SHT31;37911;51.526;11.536;2024-02-21T15:39:58;11.25;66.65
51878;SHT31;37911;51.526;11.536;2024-02-21T15:43:01;11.22;66.95
51878;SHT31;37911;51.526;11.536;2024-02-21T15:46:08;11.22;67.74
51878;SHT31;37911;51.526;11.536;2024-02-21T15:49:13;11.20;67.52
51878;SHT31;37911;51.526;11.536;2024-02-21T15:52:16;11.15;67.70
51878;SHT31;37911;51.526;11.536;2024-02-21T15:55:22;11.08;70.57
51878;SHT31;37911;51.526;11.536;2024-02-21T15:58:25;11.07;70.35
51878;SHT31;37911;51.526;11.536;2024-02-21T16:01:31;10.98;70.36
51878;SHT31;37911;51.526;11.536;2024-02-21T16:04:35;10.95;68.85
51878;SHT31;37911;51.526;11.536;2024-02-21T16:07:39;10.91;69.65
51878;SHT31;37911;51.526;11.536;2024-02-21T16:10:43;10.79;69.42
51878;SHT31;37911;51.526;11.536;2024-02-21T16:13:46;10.78;69.55
51878;SHT31;37911;51.526;11.536;2024-02-21T16:16:52;10.69;69.39
51878;SHT31;37911;51.526;11.536;2024-02-21T16:19:57;10.74;69.30
51878;SHT31;37911;51.526;11.536;2024-02-21T16:23:01;10.65;69.24
51878;SHT31;37911;51.526;11.536;2024-02-21T16:26:04;10.61;70.18
51878;SHT31;37911;51.526;11.536;2024-02-21T16:29:08;10.53;69.72
51878;SHT31;37911;51.526;11.536;2024-02-21T16:32:15;10.41;70.47
51878;SHT31;37911;51.526;11.536;2024-02-21T16:35:18;10.33;71.03
51878;SHT31;37911;51.526;11.536;2024-02-21T16:38:22;10.34;70.84
51878;SHT31;37911;51.526;11.536;2024-02-21T16:41:27;10.29;70.67
51878;SHT31;37911;51.526;11.536;2024-02-21T16:44:30;10.23;70.90
51878;SHT31;37911;51.526;11.536;2024-02-21T16:47:36;10.20;71.10
51878;SHT31;37911;51.526;11.536;2024-02-21T16:50:39;10.13;71.01
51878;SHT31;37911;51.526;11.536;2024-02-21T16:53:43;10.10;71.37
51878;SHT31;37911;51.526;11.536;2024-02-21T16:56:46;10.10;71.00
51878;SHT31;37911;51.526;11.536;2024-02-21T16:59:49;10.09;70.80
51878;SHT31;37911;51.526;11.536;2024-02-21T17:02:55;10.10;71.93
51878;SHT31;37911;51.526;11.536;2024-02-21T17:05:59;10.14;72.59
51878;SHT31;37911;51.526;11.536;2024-02-21T17:09:02;10.12;71.21
51878;SHT31;37911;51.526;11.536;2024-02-21T17:12:08;9.99;71.97
51878;SHT31;37911;51.526;11.536;2024-02-21T17:15:12;10.04;73.16
51878;SHT31;37911;51.526;11.536;2024-02-21T17:18:18;10.02;72.71
51878;SHT31;37911;51.526;11.536;2024-02-21T17:21:23;10.02;72.84
51878;SHT31;37911;51.526;11.536;2024-02-21T17:24:28;10.02;73.70
51878;SHT31;37911;51.526;11.536;2024-02-21T17:27:31;10.00;72.11
51878;SHT31;37911;51.526;11.536;2024-02-21T17:30:35;10.06;71.73
51878;SHT31;37911;51.526;11.536;2024-02-21T17:33:41;9.97;72.42
51878;SHT31;37911;51.526;11.536;2024-02-21T17:36:46;9.89;72.50
51878;SHT31;37911;51.526;11.536;2024-02-21T17:39:50;9.90;72.70
51878;SHT31;37911;51.526;11.536;2024-02-21T17:42:53;9.83;72.97
51878;SHT31;37911;51.526;11.536;2024-02-21T17:45:59;9.83;72.93
51878;SHT31;37911;51.526;11.536;2024-02-21T17:49:05;9.75;73.09
51878;SHT31;37911;51.526;11.536;2024-02-21T17:52:09;9.70;73.26
51878;SHT31;37911;51.526;11.536;2024-02-21T17:55:12;9.69;73.55
51878;SHT31;37911;51.526;11.536;2024-02-21T17:58:16;9.69;72.90
51878;SHT31;37911;51.526;11.536;2024-02-21T18:01:19;9.62;73.09
51878;SHT31;37911;51.526;11.536;2024-02-21T18:04:25;9.66;72.47
51878;SHT31;37911;51.526;11.536;2024-02-21T18:07:29;9.66;71.73
51878;SHT31;37911;51.526;11.536;2024-02-21T18:10:32;9.60;72.34
51878;SHT31;37911;51.526;11.536;2024-02-21T18:13:38;9.58;72.17
51878;SHT31;37911;51.526;11.536;2024-02-21T18:16:45;9.56;71.33
51878;SHT31;37911;51.526;11.536;2024-02-21T18:19:52;9.52;71.00
51878;SHT31;37911;51.526;11.536;2024-02-21T18:22:55;9.55;70.68
51878;SHT31;37911;51.526;11.536;2024-02-21T18:25:58;9.55;70.06
51878;SHT31;37911;51.526;11.536;2024-02-21T18:29:03;9.59;69.88
51878;SHT31;37911;51.526;11.536;2024-02-21T18:32:06;9.53;70.10
51878;SHT31;37911;51.526;11.536;2024-02-21T18:35:15;9.58;69.82
51878;SHT31;37911;51.526;11.536;2024-02-21T18:38:18;9.52;70.05
51878;SHT31;37911;51.526;11.536;2024-02-21T18:41:21;9.45;70.24
51878;SHT31;37911;51.526;11.536;2024-02-21T18:44:25;9.45;70.27
51878;SHT31;37911;51.526;11.536;2024-02-21T18:47:28;9.42;70.08
51878;SHT31;37911;51.526;11.536;2024-02-21T18:50:34;9.48;69.79
51878;SHT31;37911;51.526;11.536;2024-02-21T18:53:39;9.41;69.99
51878;SHT31;37911;51.526;11.536;2024-02-21T18:56:44;9.39;69.78
51878;SHT31;37911;51.526;11.536;2024-02-21T18:59:47;9.41;69.90
51878;SHT31;37911;51.526;11.536;2024-02-21T19:02:51;9.41;69.51
51878;SHT31;37911;51.526;11.536;2024-02-21T19:05:57;9.42;69.80
51878;SHT31;37911;51.526;11.536;2024-02-21T19:09:02;9.43;69.56
51878;SHT31;37911;51.526;11.536;2024-02-21T19:12:06;9.35;70.24
51878;SHT31;37911;51.526;11.536;2024-02-21T19:15:09;9.35;70.14
51878;SHT31;37911;51.526;11.536;2024-02-21T19:18:13;9.39;70.16